sensor_id;sensor_type;location;lat;lon;timestamp;pressure;altitude;pressure_sealevel;temperature;humidity
48624;BME280;34422;45.802;16.114;2023-09-08T00:00:24;65490.91;;;15.99;100.00
48624;BME280;34422;45.802;16.114;2023-09-08T00:02:51;65497.94;;;16.04;100.00
48624;BME280;34422;45.802;16.114;2023-09-08T00:05:18;65497.41;;;16.00;100.00
48624;BME280;34422;45.802;16.114;2023-09-08T00:07:44;65484.44;;;15.91;100.00
48624;BME280;34422;45.802;16.114;2023-09-08T00:10:11;65481.72;;;15.91;100.00
48624;BME280;34422;45.802;16.114;2023-09-08T00:12:38;65492.56;;;15.93;100.00
48624;BME280;34422;45.802;16.114;2023-09-08T00:15:06;65483.34;;;15.92;100.00
48624;BME280;34422;45.802;16.114;2023-09-08T00:17:33;65489.84;;;15.96;100.00
48624;BME280;34422;45.802;16.114;2023-09-08T00:20:00;65496.88;;;15.97;100.00
48624;BME280;34422;45.802;16.114;2023-09-08T00:22:27;65494.72;;;15.98;100.00
48624;BME280;34422;45.802;16.114;2023-09-08T00:24:53;65501.19;;;16.07;100.00
48624;BME280;34422;45.802;16.114;2023-09-08T00:27:21;65509.31;;;16.12;100.00
48624;BME280;34422;45.802;16.114;2023-09-08T00:29:48;65502.28;;;16.08;100.00
48624;BME280;34422;45.802;16.114;2023-09-08T00:32:15;65499.03;;;16.05;100.00
48624;BME280;34422;45.802;16.114;2023-09-08T00:34:42;65494.16;;;16.03;100.00
48624;BME280;34422;45.802;16.114;2023-09-08T00:37:09;65491.47;;;15.95;100.00
48624;BME280;34422;45.802;16.114;2023-09-08T00:39:37;65490.94;;;15.94;100.00
48624;BME280;34422;45.802;16.114;2023-09-08T00:42:04;65493.09;;;15.91;100.00
48624;BME280;34422;45.802;16.114;2023-09-08T00:44:31;65488.75;;;15.92;100.00
48624;BME280;34422;45.802;16.114;2023-09-08T00:46:58;65482.81;;;15.87;100.00
48624;BME280;34422;45.802;16.114;2023-09-08T00:49:25;65482.28;;;15.86;100.00
48624;BME280;34422;45.802;16.114;2023-09-08T00:51:52;65481.72;;;15.88;100.00
48624;BME280;34422;45.802;16.114;2023-09-08T00:54:19;65480.66;;;15.87;100.00
48624;BME280;34422;45.802;16.114;2023-09-08T00:56:46;65481.19;;;15.85;100.00
48624;BME280;34422;45.802;16.114;2023-09-08T00:59:16;65487.69;;;15.91;100.00
48624;BME280;34422;45.802;16.114;2023-09-08T01:01:43;65492.00;;;15.95;100.00
48624;BME280;34422;45.802;16.114;2023-09-08T01:04:10;65484.44;;;15.93;100.00
48624;BME280;34422;45.802;16.114;2023-09-08T01:06:37;65485.50;;;15.89;100.00
48624;BME280;34422;45.802;16.114;2023-09-08T01:09:04;65479.59;;;15.84;100.00
48624;BME280;34422;45.802;16.114;2023-09-08T01:11:31;65479.56;;;15.86;100.00
48624;BME280;34422;45.802;16.114;2023-09-08T01:13:58;65476.88;;;15.81;100.00
48624;BME280;34422;45.802;16.114;2023-09-08T01:16:25;65476.34;;;15.81;100.00
48624;BME280;34422;45.802;16.114;2023-09-08T01:18:52;65469.28;;;15.79;100.00
48624;BME280;34422;45.802;16.114;2023-09-08T01:27:05;65449.28;;;15.53;100.00
48624;BME280;34422;45.802;16.114;2023-09-08T01:29:34;65427.13;;;15.40;100.00
48624;BME280;34422;45.802;16.114;2023-09-08T01:32:04;65431.44;;;15.41;100.00
48624;BME280;34422;45.802;16.114;2023-09-08T01:34:31;65430.34;;;15.38;100.00
48624;BME280;34422;45.802;16.114;2023-09-08T01:37:00;65428.19;;;15.36;100.00
48624;BME280;34422;45.802;16.114;2023-09-08T01:39:30;65435.75;;;15.43;100.00
48624;BME280;34422;45.802;16.114;2023-09-08T01:41:57;65435.22;;;15.40;100.00
48624;BME280;34422;45.802;16.114;2023-09-08T01:44:24;65429.28;;;15.37;100.00
48624;BME280;34422;45.802;16.114;2023-09-08T01:46:51;65429.81;;;15.37;100.00
48624;BME280;34422;45.802;16.114;2023-09-08T01:49:23;65432.53;;;15.40;100.00
48624;BME280;34422;45.802;16.114;2023-09-08T01:51:51;65435.75;;;15.38;100.00
48624;BME280;34422;45.802;16.114;2023-09-08T01:54:18;65429.28;;;15.37;100.00
48624;BME280;34422;45.802;16.114;2023-09-08T01:56:45;65421.16;;;15.32;100.00
48624;BME280;34422;45.802;16.114;2023-09-08T01:59:12;65391.97;;;15.07;100.00
48624;BME280;34422;45.802;16.114;2023-09-08T02:01:39;65395.75;;;15.05;100.00
48624;BME280;34422;45.802;16.114;2023-09-08T02:04:06;65392.53;;;15.02;100.00
48624;BME280;34422;45.802;16.114;2023-09-08T02:06:33;65393.59;;;15.03;100.00
48624;BME280;34422;45.802;16.114;2023-09-08T02:09:00;65395.75;;;15.10;100.00
48624;BME280;34422;45.802;16.114;2023-09-08T02:11:27;65376.31;;;14.87;100.00
48624;BME280;34422;45.802;16.114;2023-09-08T02:13:54;65380.63;;;14.86;100.00
48624;BME280;34422;45.802;16.114;2023-09-08T02:16:21;65367.66;;;14.79;100.00
48624;BME280;34422;45.802;16.114;2023-09-08T02:18:50;65365.50;;;14.77;100.00
48624;BME280;34422;45.802;16.114;2023-09-08T02:21:17;65367.66;;;14.79;100.00
48624;BME280;34422;45.802;16.114;2023-09-08T02:23:44;65357.41;;;14.77;100.00
48624;BME280;34422;45.802;16.114;2023-09-08T02:26:11;65372.00;;;14.83;100.00
48624;BME280;34422;45.802;16.114;2023-09-08T02:28:38;65376.84;;;14.90;100.00
48624;BME280;34422;45.802;16.114;2023-09-08T02:31:05;65381.16;;;14.97;100.00
48624;BME280;34422;45.802;16.114;2023-09-08T02:33:33;65382.25;;;14.95;100.00
48624;BME280;34422;45.802;16.114;2023-09-08T02:36:04;65387.66;;;14.98;100.00
48624;BME280;34422;45.802;16.114;2023-09-08T02:38:32;65392.00;;;15.02;100.00
48624;BME280;34422;45.802;16.114;2023-09-08T02:40:59;65393.59;;;15.06;100.00
48624;BME280;34422;45.802;16.114;2023-09-08T02:43:26;65393.06;;;15.05;100.00
48624;BME280;34422;45.802;16.114;2023-09-08T02:45:53;65398.47;;;15.10;100.00
48624;BME280;34422;45.802;16.114;2023-09-08T02:48:20;65404.97;;;15.14;100.00
48624;BME280;34422;45.802;16.114;2023-09-08T02:50:47;65418.47;;;15.26;100.00
48624;BME280;34422;45.802;16.114;2023-09-08T02:53:14;65423.84;;;15.32;100.00
48624;BME280;34422;45.802;16.114;2023-09-08T02:55:41;65424.94;;;15.33;100.00
48624;BME280;34422;45.802;16.114;2023-09-08T02:58:08;65417.38;;;15.25;100.00
48624;BME280;34422;45.802;16.114;2023-09-08T03:00:35;65419.53;;;15.25;100.00
48624;BME280;34422;45.802;16.114;2023-09-08T03:03:01;65411.97;;;15.20;100.00
48624;BME280;34422;45.802;16.114;2023-09-08T03:05:28;65409.81;;;15.13;100.00
48624;BME280;34422;45.802;16.114;2023-09-08T03:07:55;65398.47;;;15.10;100.00
48624;BME280;34422;45.802;16.114;2023-09-08T03:10:22;65392.53;;;15.02;100.00
48624;BME280;34422;45.802;16.114;2023-09-08T03:12:49;65394.13;;;15.06;100.00
48624;BME280;34422;45.802;16.114;2023-09-08T03:15:15;65382.78;;;14.93;100.00
48624;BME280;34422;45.802;16.114;2023-09-08T03:17:42;65372.00;;;14.83;100.00
48624;BME280;34422;45.802;16.114;2023-09-08T03:20:10;65350.38;;;14.63;100.00
48624;BME280;34422;45.802;16.114;2023-09-08T03:22:37;65330.41;;;14.44;100.00
48624;BME280;34422;45.802;16.114;2023-09-08T03:25:04;65325.00;;;14.44;100.00
48624;BME280;34422;45.802;16.114;2023-09-08T03:27:31;65327.69;;;14.41;100.00
48624;BME280;34422;45.802;16.114;2023-09-08T03:29:58;65326.03;;;14.37;100.00
48624;BME280;34422;45.802;16.114;2023-09-08T03:32:25;65322.25;;;14.36;100.00
48624;BME280;34422;45.802;16.114;2023-09-08T03:34:52;65330.94;;;14.44;100.00
48624;BME280;34422;45.802;16.114;2023-09-08T03:37:19;65332.03;;;14.48;100.00
48624;BME280;34422;45.802;16.114;2023-09-08T03:39:46;65334.72;;;14.50;100.00
48624;BME280;34422;45.802;16.114;2023-09-08T03:42:13;65338.50;;;14.56;100.00
48624;BME280;34422;45.802;16.114;2023-09-08T03:44:40;65342.28;;;14.55;100.00
48624;BME280;34422;45.802;16.114;2023-09-08T03:47:06;65340.09;;;14.53;100.00
48624;BME280;34422;45.802;16.114;2023-09-08T03:49:33;65335.25;;;14.53;100.00
48624;BME280;34422;45.802;16.114;2023-09-08T03:52:00;65339.03;;;14.52;100.00
48624;BME280;34422;45.802;16.114;2023-09-08T03:54:27;65341.72;;;14.54;100.00
48624;BME280;34422;45.802;16.114;2023-09-08T03:56:54;65350.91;;;14.61;100.00
48624;BME280;34422;45.802;16.114;2023-09-08T03:59:21;65343.91;;;14.56;100.00
48624;BME280;34422;45.802;16.114;2023-09-08T04:01:47;65337.94;;;14.53;100.00
48624;BME280;34422;45.802;16.114;2023-09-08T04:04:14;65333.63;;;14.49;100.00
48624;BME280;34422;45.802;16.114;2023-09-08T04:06:41;65349.31;;;14.62;100.00
48624;BME280;34422;45.802;16.114;2023-09-08T04:09:08;65334.16;;;14.52;100.00
48624;BME280;34422;45.802;16.114;2023-09-08T04:11:35;65333.63;;;14.52;100.00
48624;BME280;34422;45.802;16.114;2023-09-08T04:14:02;65336.31;;;14.52;100.00
48624;BME280;34422;45.802;16.114;2023-09-08T04:16:28;65341.72;;;14.54;100.00
48624;BME280;34422;45.802;16.114;2023-09-08T04:18:55;65346.59;;;14.59;100.00
48624;BME280;34422;45.802;16.114;2023-09-08T04:21:22;65346.59;;;14.59;100.00
48624;BME280;34422;45.802;16.114;2023-09-08T04:23:49;65353.63;;;14.66;100.00
48624;BME280;34422;45.802;16.114;2023-09-08T04:26:16;65356.31;;;14.71;100.00
48624;BME280;34422;45.802;16.114;2023-09-08T04:28:42;65349.28;;;14.64;100.00
48624;BME280;34422;45.802;16.114;2023-09-08T04:31:09;65347.13;;;14.60;100.00
48624;BME280;34422;45.802;16.114;2023-09-08T04:33:36;65354.16;;;14.66;100.00
48624;BME280;34422;45.802;16.114;2023-09-08T04:36:03;65361.19;;;14.68;100.00
48624;BME280;34422;45.802;16.114;2023-09-08T04:38:30;65320.66;;;14.37;100.00
48624;BME280;34422;45.802;16.114;2023-09-08T04:40:57;65289.88;;;14.06;100.00
48624;BME280;34422;45.802;16.114;2023-09-08T04:43:24;65266.63;;;13.81;100.00
48624;BME280;34422;45.802;16.114;2023-09-08T04:45:51;65259.63;;;13.77;100.00
48624;BME280;34422;45.802;16.114;2023-09-08T04:48:18;65274.75;;;13.92;100.00
48624;BME280;34422;45.802;16.114;2023-09-08T04:50:45;65274.75;;;13.92;100.00
48624;BME280;34422;45.802;16.114;2023-09-08T04:53:12;65274.75;;;13.92;100.00
48624;BME280;34422;45.802;16.114;2023-09-08T04:55:38;65283.94;;;14.00;100.00
48624;BME280;34422;45.802;16.114;2023-09-08T04:58:05;65280.69;;;13.97;100.00
48624;BME280;34422;45.802;16.114;2023-09-08T05:00:32;65293.09;;;14.11;100.00
48624;BME280;34422;45.802;16.114;2023-09-08T05:03:00;65302.84;;;14.18;100.00
48624;BME280;34422;45.802;16.114;2023-09-08T05:05:27;65296.88;;;14.12;100.00
48624;BME280;34422;45.802;16.114;2023-09-08T05:07:53;65293.63;;;14.09;100.00
48624;BME280;34422;45.802;16.114;2023-09-08T05:10:23;65304.44;;;14.17;100.00
48624;BME280;34422;45.802;16.114;2023-09-08T05:12:51;65319.03;;;14.33;100.00
48624;BME280;34422;45.802;16.114;2023-09-08T05:15:18;65337.41;;;14.50;100.00
48624;BME280;34422;45.802;16.114;2023-09-08T05:17:47;65344.97;;;14.57;100.00
48624;BME280;34422;45.802;16.114;2023-09-08T05:20:14;65363.34;;;14.75;100.00
48624;BME280;34422;45.802;16.114;2023-09-08T05:22:41;65376.31;;;14.87;100.00
48624;BME280;34422;45.802;16.114;2023-09-08T05:25:08;65375.22;;;14.86;100.00
48624;BME280;34422;45.802;16.114;2023-09-08T05:27:36;65381.72;;;14.97;100.00
48624;BME280;34422;45.802;16.114;2023-09-08T05:30:03;65403.34;;;15.15;100.00
48624;BME280;34422;45.802;16.114;2023-09-08T05:32:30;65419.00;;;15.24;100.00
48624;BME280;34422;45.802;16.114;2023-09-08T05:34:58;65427.13;;;15.40;100.00
48624;BME280;34422;45.802;16.114;2023-09-08T05:37:25;65453.63;;;15.62;100.00
48624;BME280;34422;45.802;16.114;2023-09-08T05:39:51;65484.97;;;15.91;100.00
48624;BME280;34422;45.802;16.114;2023-09-08T05:42:18;65494.69;;;16.00;100.00
48624;BME280;34422;45.802;16.114;2023-09-08T05:44:45;65499.56;;;16.08;100.00
48624;BME280;34422;45.802;16.114;2023-09-08T05:47:12;65497.41;;;16.11;100.00
48624;BME280;34422;45.802;16.114;2023-09-08T05:49:39;65512.56;;;16.20;100.00
48624;BME280;34422;45.802;16.114;2023-09-08T05:52:06;65527.69;;;16.29;100.00
48624;BME280;34422;45.802;16.114;2023-09-08T05:54:32;65541.22;;;16.47;100.00
48624;BME280;34422;45.802;16.114;2023-09-08T05:57:00;65562.34;;;16.66;100.00
48624;BME280;34422;45.802;16.114;2023-09-08T05:59:27;65590.50;;;16.88;100.00
48624;BME280;34422;45.802;16.114;2023-09-08T06:01:53;65608.34;;;17.02;100.00
48624;BME280;34422;45.802;16.114;2023-09-08T06:04:21;65648.41;;;17.47;100.00
48624;BME280;34422;45.802;16.114;2023-09-08T06:06:47;65682.00;;;17.76;100.00
48624;BME280;34422;45.802;16.114;2023-09-08T06:09:15;65691.22;;;17.87;100.00
48624;BME280;34422;45.802;16.114;2023-09-08T06:11:44;65686.88;;;17.83;100.00
48624;BME280;34422;45.802;16.114;2023-09-08T06:14:10;65704.75;;;17.97;100.00
48624;BME280;34422;45.802;16.114;2023-09-08T06:16:38;65730.19;;;18.24;100.00
48624;BME280;34422;45.802;16.114;2023-09-08T06:19:05;65769.22;;;18.60;100.00
48624;BME280;34422;45.802;16.114;2023-09-08T06:21:31;65781.72;;;18.69;100.00
48624;BME280;34422;45.802;16.114;2023-09-08T06:23:59;65783.34;;;18.68;100.00
48624;BME280;34422;45.802;16.114;2023-09-08T06:26:25;65802.28;;;18.91;100.00
48624;BME280;34422;45.802;16.114;2023-09-08T06:28:52;65823.47;;;19.06;100.00
48624;BME280;34422;45.802;16.114;2023-09-08T06:31:19;65825.63;;;19.13;100.00
48624;BME280;34422;45.802;16.114;2023-09-08T06:33:46;65896.69;;;19.77;100.00
48624;BME280;34422;45.802;16.114;2023-09-08T06:36:13;65941.16;;;20.18;100.00
48624;BME280;34422;45.802;16.114;2023-09-08T06:38:40;65946.56;;;20.29;100.00
48624;BME280;34422;45.802;16.114;2023-09-08T06:41:11;65988.41;;;20.63;100.00
48624;BME280;34422;45.802;16.114;2023-09-08T06:43:39;66038.88;;;21.12;100.00
48624;BME280;34422;45.802;16.114;2023-09-08T06:46:05;66101.38;;;21.68;100.00
48624;BME280;34422;45.802;16.114;2023-09-08T06:48:32;66143.75;;;22.10;100.00
48624;BME280;34422;45.802;16.114;2023-09-08T06:50:59;66184.50;;;22.48;99.26
48624;BME280;34422;45.802;16.114;2023-09-08T06:53:26;66267.16;;;23.25;94.51
48624;BME280;34422;45.802;16.114;2023-09-08T06:55:53;66318.84;;;23.76;81.08
48624;BME280;34422;45.802;16.114;2023-09-08T06:58:20;66244.88;;;23.04;87.62
48624;BME280;34422;45.802;16.114;2023-09-08T07:00:46;66324.25;;;23.84;84.90
48624;BME280;34422;45.802;16.114;2023-09-08T07:03:13;66288.94;;;23.43;87.48
48624;BME280;34422;45.802;16.114;2023-09-08T07:05:40;66379.84;;;24.30;80.14
48624;BME280;34422;45.802;16.114;2023-09-08T07:08:07;66293.81;;;23.50;86.20
48624;BME280;34422;45.802;16.114;2023-09-08T07:10:34;66377.13;;;24.25;82.38
48624;BME280;34422;45.802;16.114;2023-09-08T07:13:01;66289.47;;;23.46;88.72
48624;BME280;34422;45.802;16.114;2023-09-08T07:15:27;66297.09;;;23.53;89.36
48624;BME280;34422;45.802;16.114;2023-09-08T07:17:54;66257.38;;;23.19;91.53
48624;BME280;34422;45.802;16.114;2023-09-08T07:20:21;66316.13;;;23.71;87.91
48624;BME280;34422;45.802;16.114;2023-09-08T07:22:48;66319.97;;;23.69;84.68
48624;BME280;34422;45.802;16.114;2023-09-08T07:25:15;66335.22;;;23.86;78.43
48624;BME280;34422;45.802;16.114;2023-09-08T07:27:42;66369.50;;;24.18;78.36
48624;BME280;34422;45.802;16.114;2023-09-08T07:30:09;66359.63;;;24.17;79.19
48624;BME280;34422;45.802;16.114;2023-09-08T07:32:36;66407.03;;;24.56;76.74
48624;BME280;34422;45.802;16.114;2023-09-08T07:35:03;66420.66;;;24.68;75.55
48624;BME280;34422;45.802;16.114;2023-09-08T07:37:30;66452.81;;;24.96;77.34
48624;BME280;34422;45.802;16.114;2023-09-08T07:39:56;66526.34;;;25.67;69.32
48624;BME280;34422;45.802;16.114;2023-09-08T07:42:23;66624.50;;;26.55;67.33
48624;BME280;34422;45.802;16.114;2023-09-08T07:44:52;66646.25;;;26.81;64.36
48624;BME280;34422;45.802;16.114;2023-09-08T07:47:18;66701.34;;;27.32;56.03
48624;BME280;34422;45.802;16.114;2023-09-08T07:49:46;66746.06;;;27.76;55.39
48624;BME280;34422;45.802;16.114;2023-09-08T07:52:14;66679.56;;;27.09;53.93
48624;BME280;34422;45.802;16.114;2023-09-08T07:54:41;66702.41;;;27.36;53.67
48624;BME280;34422;45.802;16.114;2023-09-08T07:57:08;66694.78;;;27.29;53.63
48624;BME280;34422;45.802;16.114;2023-09-08T07:59:34;66773.41;;;27.97;51.87
48624;BME280;34422;45.802;16.114;2023-09-08T08:02:01;66802.91;;;28.24;51.53
48624;BME280;34422;45.802;16.114;2023-09-08T08:04:28;66771.22;;;27.94;50.28
48624;BME280;34422;45.802;16.114;2023-09-08T08:06:55;66786.94;;;28.17;50.33
48624;BME280;34422;45.802;16.114;2023-09-08T08:09:22;66753.19;;;27.80;51.15
48624;BME280;34422;45.802;16.114;2023-09-08T08:11:49;66687.72;;;27.19;55.12
48624;BME280;34422;45.802;16.114;2023-09-08T08:14:16;66753.75;;;27.78;55.00
48624;BME280;34422;45.802;16.114;2023-09-08T08:16:43;66828.00;;;28.47;51.51
48624;BME280;34422;45.802;16.114;2023-09-08T08:19:10;66752.66;;;27.77;52.73
48624;BME280;34422;45.802;16.114;2023-09-08T08:21:37;66737.41;;;27.63;52.65
48624;BME280;34422;45.802;16.114;2023-09-08T08:24:04;66774.50;;;27.98;51.25
48624;BME280;34422;45.802;16.114;2023-09-08T08:26:31;66800.72;;;28.22;49.24
48624;BME280;34422;45.802;16.114;2023-09-08T08:28:59;66796.31;;;28.18;49.00
48624;BME280;34422;45.802;16.114;2023-09-08T08:31:26;66701.91;;;27.33;49.38
48624;BME280;34422;45.802;16.114;2023-09-08T08:33:54;66763.56;;;27.90;48.21
48624;BME280;34422;45.802;16.114;2023-09-08T08:36:21;66711.13;;;27.44;50.10
48624;BME280;34422;45.802;16.114;2023-09-08T08:38:48;66698.63;;;27.30;50.08
48624;BME280;34422;45.802;16.114;2023-09-08T08:41:14;66664.84;;;26.96;49.66
48624;BME280;34422;45.802;16.114;2023-09-08T08:43:43;66671.31;;;27.07;52.01
48624;BME280;34422;45.802;16.114;2023-09-08T08:46:12;66721.56;;;27.48;49.55
48624;BME280;34422;45.802;16.114;2023-09-08T08:48:40;66743.91;;;27.74;49.11
48624;BME280;34422;45.802;16.114;2023-09-08T08:51:08;66765.75;;;27.89;47.20
48624;BME280;34422;45.802;16.114;2023-09-08T08:53:35;66803.91;;;28.30;46.97
48624;BME280;34422;45.802;16.114;2023-09-08T08:56:05;66819.28;;;28.39;47.78
48624;BME280;34422;45.802;16.114;2023-09-08T08:58:37;66824.72;;;28.44;46.90
48624;BME280;34422;45.802;16.114;2023-09-08T09:01:05;66813.84;;;28.32;48.16
48624;BME280;34422;45.802;16.114;2023-09-08T09:03:33;66775.53;;;28.04;48.62
48624;BME280;34422;45.802;16.114;2023-09-08T09:06:01;66765.72;;;27.94;49.02
48624;BME280;34422;45.802;16.114;2023-09-08T09:08:28;66760.25;;;27.89;48.66
48624;BME280;34422;45.802;16.114;2023-09-08T09:10:55;66781.56;;;28.07;50.31
48624;BME280;34422;45.802;16.114;2023-09-08T09:13:22;66769.59;;;27.93;49.03
48624;BME280;34422;45.802;16.114;2023-09-08T09:15:50;66742.28;;;27.70;49.97
48624;BME280;34422;45.802;16.114;2023-09-08T09:18:17;66679.50;;;27.14;51.86
48624;BME280;34422;45.802;16.114;2023-09-08T09:20:53;66638.06;;;26.76;53.75
48624;BME280;34422;45.802;16.114;2023-09-08T09:23:31;66657.19;;;26.88;54.59
48624;BME280;34422;45.802;16.114;2023-09-08T09:26:00;66706.31;;;27.32;51.18
48624;BME280;34422;45.802;16.114;2023-09-08T09:28:28;66626.63;;;26.63;53.95
48624;BME280;34422;45.802;16.114;2023-09-08T09:30:56;66653.34;;;26.87;53.79
48624;BME280;34422;45.802;16.114;2023-09-08T09:33:23;66660.41;;;26.97;53.94
48624;BME280;34422;45.802;16.114;2023-09-08T09:35:51;66678.47;;;27.08;55.33
48624;BME280;34422;45.802;16.114;2023-09-08T09:38:19;66687.72;;;27.19;55.87
48624;BME280;34422;45.802;16.114;2023-09-08T09:40:48;66647.91;;;26.80;55.70
48624;BME280;34422;45.802;16.114;2023-09-08T09:43:16;66670.78;;;27.06;53.74
48624;BME280;34422;45.802;16.114;2023-09-08T09:45:43;66654.41;;;26.91;53.96
48624;BME280;34422;45.802;16.114;2023-09-08T09:48:11;66635.91;;;26.69;54.58
48624;BME280;34422;45.802;16.114;2023-09-08T09:50:39;66631.03;;;26.64;56.94
48624;BME280;34422;45.802;16.114;2023-09-08T09:53:11;66676.81;;;27.09;56.11
48624;BME280;34422;45.802;16.114;2023-09-08T09:55:41;66676.78;;;27.12;55.89
48624;BME280;34422;45.802;16.114;2023-09-08T09:58:08;66708.41;;;27.41;57.77
48624;BME280;34422;45.802;16.114;2023-09-08T10:00:37;66682.28;;;27.12;57.20
48624;BME280;34422;45.802;16.114;2023-09-08T10:03:05;66724.25;;;27.56;56.40
48624;BME280;34422;45.802;16.114;2023-09-08T10:05:33;66764.66;;;27.88;53.70
48624;BME280;34422;45.802;16.114;2023-09-08T10:08:00;66741.25;;;27.64;54.59
48624;BME280;34422;45.802;16.114;2023-09-08T10:10:27;66764.66;;;27.88;53.54
48624;BME280;34422;45.802;16.114;2023-09-08T10:13:01;66776.13;;;28.02;52.37
48624;BME280;34422;45.802;16.114;2023-09-08T10:15:30;66755.91;;;27.85;55.31
48624;BME280;34422;45.802;16.114;2023-09-08T10:17:57;66748.78;;;27.79;53.14
48624;BME280;34422;45.802;16.114;2023-09-08T10:20:27;66769.00;;;27.95;51.43
48624;BME280;34422;45.802;16.114;2023-09-08T10:23:07;66755.91;;;27.85;51.63
48624;BME280;34422;45.802;16.114;2023-09-08T10:25:43;66771.78;;;27.95;53.67
48624;BME280;34422;45.802;16.114;2023-09-08T10:28:12;66741.19;;;27.69;54.40
48624;BME280;34422;45.802;16.114;2023-09-08T10:30:40;66756.44;;;27.86;53.41
48624;BME280;34422;45.802;16.114;2023-09-08T10:33:07;66770.13;;;27.93;51.77
48624;BME280;34422;45.802;16.114;2023-09-08T10:35:35;66775.59;;;27.99;51.10
48624;BME280;34422;45.802;16.114;2023-09-08T10:38:21;66758.63;;;27.88;51.08
48624;BME280;34422;45.802;16.114;2023-09-08T10:40:48;66783.19;;;28.11;50.88
48624;BME280;34422;45.802;16.114;2023-09-08T10:43:15;66753.16;;;27.83;49.94
48624;BME280;34422;45.802;16.114;2023-09-08T10:45:41;66809.44;;;28.30;50.32
48624;BME280;34422;45.802;16.114;2023-09-08T10:48:08;66785.91;;;28.13;49.58
48624;BME280;34422;45.802;16.114;2023-09-08T10:50:40;66822.56;;;28.42;47.10
48624;BME280;34422;45.802;16.114;2023-09-08T10:53:14;66807.75;;;28.34;47.01
48624;BME280;34422;45.802;16.114;2023-09-08T10:55:43;66779.91;;;28.08;47.62
48624;BME280;34422;45.802;16.114;2023-09-08T10:58:34;66777.16;;;28.05;50.02
48624;BME280;34422;45.802;16.114;2023-09-08T11:01:03;66777.13;;;28.08;48.56
48624;BME280;34422;45.802;16.114;2023-09-08T11:06:08;66803.41;;;28.27;48.79
48624;BME280;34422;45.802;16.114;2023-09-08T11:08:41;66836.75;;;28.55;47.65
48624;BME280;34422;45.802;16.114;2023-09-08T11:11:13;66853.06;;;28.76;46.24
48624;BME280;34422;45.802;16.114;2023-09-08T11:13:40;66832.91;;;28.54;45.96
48624;BME280;34422;45.802;16.114;2023-09-08T11:16:08;66825.75;;;28.50;46.72
48624;BME280;34422;45.802;16.114;2023-09-08T11:18:36;66811.63;;;28.32;46.58
48624;BME280;34422;45.802;16.114;2023-09-08T11:21:07;66819.22;;;28.44;46.87
48624;BME280;34422;45.802;16.114;2023-09-08T11:23:36;66819.22;;;28.44;48.17
48624;BME280;34422;45.802;16.114;2023-09-08T11:26:03;66803.91;;;28.30;46.12
48624;BME280;34422;45.802;16.114;2023-09-08T11:28:31;66825.81;;;28.45;46.42
48624;BME280;34422;45.802;16.114;2023-09-08T11:30:57;66754.25;;;27.84;46.84
48624;BME280;34422;45.802;16.114;2023-09-08T11:33:24;66779.91;;;28.08;45.48
48624;BME280;34422;45.802;16.114;2023-09-08T11:35:52;66775.56;;;28.01;46.80
48624;BME280;34422;45.802;16.114;2023-09-08T11:38:27;66789.16;;;28.19;48.02
48624;BME280;34422;45.802;16.114;2023-09-08T11:40:56;66794.66;;;28.21;47.35
48624;BME280;34422;45.802;16.114;2023-09-08T11:43:26;66788.13;;;28.13;47.05
48624;BME280;34422;45.802;16.114;2023-09-08T11:45:54;66775.59;;;27.99;45.72
48624;BME280;34422;45.802;16.114;2023-09-08T11:48:24;66779.84;;;28.13;46.66
48624;BME280;34422;45.802;16.114;2023-09-08T11:50:53;66800.66;;;28.27;45.82
48624;BME280;34422;45.802;16.114;2023-09-08T11:53:20;66809.44;;;28.30;46.18
48624;BME280;34422;45.802;16.114;2023-09-08T11:55:48;66819.28;;;28.39;44.68
48624;BME280;34422;45.802;16.114;2023-09-08T11:58:17;66794.09;;;28.21;43.31
48624;BME280;34422;45.802;16.114;2023-09-08T12:00:45;66799.03;;;28.25;43.95
48624;BME280;34422;45.802;16.114;2023-09-08T12:03:13;66816.03;;;28.34;42.44
48624;BME280;34422;45.802;16.114;2023-09-08T12:05:44;66798.47;;;28.25;41.95
48624;BME280;34422;45.802;16.114;2023-09-08T12:08:11;66799.56;;;28.26;43.83
48624;BME280;34422;45.802;16.114;2023-09-08T12:10:39;66805.59;;;28.29;43.43
48624;BME280;34422;45.802;16.114;2023-09-08T12:13:07;66818.16;;;28.41;44.54
48624;BME280;34422;45.802;16.114;2023-09-08T12:15:37;66803.91;;;28.30;42.11
48624;BME280;34422;45.802;16.114;2023-09-08T12:18:05;66844.34;;;28.65;42.85
48624;BME280;34422;45.802;16.114;2023-09-08T12:20:35;66841.06;;;28.64;43.36
48624;BME280;34422;45.802;16.114;2023-09-08T12:23:16;66834.50;;;28.58;44.22
48624;BME280;34422;45.802;16.114;2023-09-08T12:25:47;66850.28;;;28.76;43.10
48624;BME280;34422;45.802;16.114;2023-09-08T12:28:18;66867.28;;;28.89;41.77
48624;BME280;34422;45.802;16.114;2023-09-08T12:30:46;66850.41;;;28.68;42.85
48624;BME280;34422;45.802;16.114;2023-09-08T12:33:14;66818.13;;;28.43;42.24
48624;BME280;34422;45.802;16.114;2023-09-08T12:35:45;66830.13;;;28.54;42.06
48624;BME280;34422;45.802;16.114;2023-09-08T12:38:13;66832.84;;;28.57;43.60
48624;BME280;34422;45.802;16.114;2023-09-08T12:40:40;66834.00;;;28.55;42.65
48624;BME280;34422;45.802;16.114;2023-09-08T12:43:07;66818.06;;;28.48;42.66
48624;BME280;34422;45.802;16.114;2023-09-08T12:45:34;66810.47;;;28.36;42.14
48624;BME280;34422;45.802;16.114;2023-09-08T12:48:02;66827.94;;;28.52;43.45
48624;BME280;34422;45.802;16.114;2023-09-08T12:50:30;66849.78;;;28.73;41.55
48624;BME280;34422;45.802;16.114;2023-09-08T12:52:57;66823.56;;;28.48;41.78
48624;BME280;34422;45.802;16.114;2023-09-08T12:55:24;66831.81;;;28.53;42.18